AUA4NW LOWW-LGSK
Flight info
| Callsign | AUA4NW |
|---|---|
| Flight time | N/A |
| Altitude | 39000 |
| Route | ARSIN DCT NALOX DCT BABIT DCT RAXAD DCT MAKED UL617 IBIDI |
| Aircraft | A20N/M-SDE2E3FGHIJ1RWXY/LB1 |
Departure
| Time | 2026-04-26 07:29 |
|---|---|
| Airport | Vienna International Airport (LOWW) |
Arrival
| Time | N/A |
|---|---|
| Airport | Skiathos Island National Airport (LGSK) |
| Time | Latitude | Longitude | Altitude | Speed | Heading |
|---|---|---|---|---|---|
| 2026-04-26 07:11 | 48.11476 | 16.57021 | 607 ft | 0 kts | 206° |
| 2026-04-26 07:20 | 48.11475 | 16.57020 | 607 ft | 1 kts | 206° |
| 2026-04-26 07:21 | 48.11461 | 16.57010 | 613 ft | 3 kts | 206° |
| 2026-04-26 07:21 | 48.11434 | 16.56990 | 620 ft | 5 kts | 205° |
| 2026-04-26 07:21 | 48.11407 | 16.56992 | 615 ft | 4 kts | 150° |
| 2026-04-26 07:21 | 48.11387 | 16.57020 | 608 ft | 4 kts | 128° |
| 2026-04-26 07:22 | 48.11371 | 16.57063 | 617 ft | 6 kts | 118° |
| 2026-04-26 07:22 | 48.11349 | 16.57124 | 618 ft | 8 kts | 118° |
| 2026-04-26 07:22 | 48.11323 | 16.57206 | 613 ft | 9 kts | 114° |
| 2026-04-26 07:22 | 48.11295 | 16.57297 | 620 ft | 10 kts | 114° |
| 2026-04-26 07:23 | 48.11267 | 16.57389 | 615 ft | 10 kts | 114° |
| 2026-04-26 07:23 | 48.11234 | 16.57498 | 622 ft | 13 kts | 114° |
| 2026-04-26 07:23 | 48.11195 | 16.57624 | 615 ft | 14 kts | 116° |
| 2026-04-26 07:23 | 48.11134 | 16.57742 | 611 ft | 16 kts | 144° |
| 2026-04-26 07:24 | 48.11024 | 16.57806 | 615 ft | 18 kts | 163° |
| 2026-04-26 07:24 | 48.10903 | 16.57860 | 611 ft | 18 kts | 163° |
| 2026-04-26 07:24 | 48.10776 | 16.57910 | 619 ft | 19 kts | 167° |
| 2026-04-26 07:24 | 48.10645 | 16.57954 | 620 ft | 19 kts | 164° |
| 2026-04-26 07:25 | 48.10506 | 16.58016 | 623 ft | 22 kts | 162° |
| 2026-04-26 07:25 | 48.10356 | 16.58079 | 617 ft | 23 kts | 164° |
| 2026-04-26 07:25 | 48.10198 | 16.58149 | 617 ft | 23 kts | 160° |
| 2026-04-26 07:25 | 48.10036 | 16.58224 | 617 ft | 25 kts | 164° |
| 2026-04-26 07:26 | 48.09864 | 16.58295 | 623 ft | 25 kts | 163° |
| 2026-04-26 07:26 | 48.09690 | 16.58368 | 611 ft | 26 kts | 164° |
| 2026-04-26 07:26 | 48.09505 | 16.58446 | 618 ft | 29 kts | 164° |
| 2026-04-26 07:26 | 48.09300 | 16.58523 | 603 ft | 31 kts | 167° |
| 2026-04-26 07:27 | 48.09096 | 16.58615 | 600 ft | 29 kts | 161° |
| 2026-04-26 07:27 | 48.08940 | 16.58747 | 600 ft | 25 kts | 122° |
| 2026-04-26 07:27 | 48.08923 | 16.58875 | 599 ft | 0 kts | 77° |
| 2026-04-26 07:28 | 48.08923 | 16.58877 | 599 ft | 3 kts | 77° |
| 2026-04-26 07:28 | 48.08983 | 16.59018 | 601 ft | 29 kts | 27° |
| 2026-04-26 07:29 | 48.09295 | 16.58952 | 601 ft | 79 kts | 345° |
| 2026-04-26 07:29 | 48.10079 | 16.58627 | 678 ft | 148 kts | 344° |
| 2026-04-26 07:29 | 48.11131 | 16.58155 | 1328 ft | 163 kts | 342° |
| 2026-04-26 07:29 | 48.12183 | 16.57701 | 2595 ft | 155 kts | 343° |
| 2026-04-26 07:30 | 48.13274 | 16.57235 | 3585 ft | 168 kts | 342° |
| 2026-04-26 07:30 | 48.14303 | 16.56509 | 4883 ft | 159 kts | 325° |
| 2026-04-26 07:30 | 48.15023 | 16.55317 | 6165 ft | 154 kts | 302° |
| 2026-04-26 07:30 | 48.15318 | 16.53810 | 7308 ft | 156 kts | 281° |
| 2026-04-26 07:31 | 48.15128 | 16.52151 | 8311 ft | 172 kts | 258° |
| 2026-04-26 07:31 | 48.14339 | 16.50659 | 9288 ft | 199 kts | 229° |
| 2026-04-26 07:31 | 48.13031 | 16.49707 | 10266 ft | 216 kts | 212° |
| 2026-04-26 07:31 | 48.11572 | 16.48997 | 11140 ft | 224 kts | 208° |
| 2026-04-26 07:32 | 48.10062 | 16.48300 | 11943 ft | 229 kts | 207° |
| 2026-04-26 07:32 | 48.08526 | 16.47612 | 12697 ft | 241 kts | 203° |
| 2026-04-26 07:32 | 48.06723 | 16.47333 | 13149 ft | 279 kts | 184° |
| 2026-04-26 07:32 | 48.04646 | 16.47606 | 13418 ft | 320 kts | 177° |
| 2026-04-26 07:33 | 48.02316 | 16.48075 | 13819 ft | 353 kts | 175° |
| 2026-04-26 07:33 | 47.99800 | 16.48589 | 14423 ft | 373 kts | 176° |
| 2026-04-26 07:33 | 47.97189 | 16.48635 | 15317 ft | 375 kts | 193° |
| 2026-04-26 07:33 | 47.94751 | 16.47476 | 16308 ft | 371 kts | 209° |
| 2026-04-26 07:34 | 47.92424 | 16.45756 | 17332 ft | 375 kts | 212° |
| 2026-04-26 07:34 | 47.90057 | 16.44049 | 18347 ft | 383 kts | 206° |
| 2026-04-26 07:34 | 47.87422 | 16.43133 | 19207 ft | 396 kts | 187° |
| 2026-04-26 07:34 | 47.84634 | 16.43488 | 20068 ft | 406 kts | 170° |
| 2026-04-26 07:35 | 47.81872 | 16.44502 | 20930 ft | 411 kts | 166° |
| 2026-04-26 07:35 | 47.79097 | 16.45637 | 21803 ft | 415 kts | 166° |
| 2026-04-26 07:35 | 47.76330 | 16.46769 | 22643 ft | 419 kts | 166° |
| 2026-04-26 07:35 | 47.73498 | 16.47911 | 23479 ft | 423 kts | 166° |
| 2026-04-26 07:36 | 47.70630 | 16.49055 | 24164 ft | 428 kts | 166° |
| 2026-04-26 07:36 | 47.67766 | 16.50420 | 24795 ft | 434 kts | 158° |
| 2026-04-26 07:36 | 47.65155 | 16.52587 | 25398 ft | 439 kts | 143° |
| 2026-04-26 07:36 | 47.62946 | 16.55728 | 25999 ft | 441 kts | 127° |
| 2026-04-26 07:37 | 47.61341 | 16.59592 | 26625 ft | 441 kts | 114° |
| 2026-04-26 07:37 | 47.60030 | 16.63714 | 27230 ft | 444 kts | 114° |
| 2026-04-26 07:37 | 47.58411 | 16.67654 | 27812 ft | 450 kts | 125° |
| 2026-04-26 07:37 | 47.56296 | 16.71029 | 28348 ft | 456 kts | 138° |
| 2026-04-26 07:38 | 47.53673 | 16.73710 | 28882 ft | 460 kts | 152° |
| 2026-04-26 07:38 | 47.50690 | 16.75494 | 29404 ft | 463 kts | 165° |
| 2026-04-26 07:38 | 47.47512 | 16.76342 | 29889 ft | 466 kts | 174° |
| 2026-04-26 07:38 | 47.44276 | 16.76802 | 30338 ft | 469 kts | 177° |
| 2026-04-26 07:39 | 47.41004 | 16.77105 | 30874 ft | 468 kts | 178° |
| 2026-04-26 07:39 | 47.37765 | 16.77347 | 31584 ft | 463 kts | 179° |
| 2026-04-26 07:39 | 47.34557 | 16.77582 | 32311 ft | 458 kts | 179° |
| 2026-04-26 07:39 | 47.31384 | 16.77831 | 33011 ft | 453 kts | 178° |
| 2026-04-26 07:40 | 47.28289 | 16.78094 | 33679 ft | 449 kts | 179° |
| 2026-04-26 07:40 | 47.25169 | 16.78376 | 34339 ft | 444 kts | 178° |
| 2026-04-26 07:40 | 47.22090 | 16.78665 | 34869 ft | 441 kts | 178° |
| 2026-04-26 07:40 | 47.19024 | 16.78958 | 35268 ft | 441 kts | 179° |
| 2026-04-26 07:41 | 47.15960 | 16.79251 | 35659 ft | 441 kts | 178° |
| 2026-04-26 07:41 | 47.12934 | 16.79540 | 36055 ft | 441 kts | 178° |
| 2026-04-26 07:41 | 47.09873 | 16.79833 | 36423 ft | 441 kts | 178° |
| 2026-04-26 07:41 | 47.06796 | 16.80126 | 36768 ft | 442 kts | 178° |
| 2026-04-26 07:42 | 47.03708 | 16.80419 | 37123 ft | 443 kts | 178° |
| 2026-04-26 07:42 | 47.00666 | 16.80708 | 37481 ft | 443 kts | 178° |
| 2026-04-26 07:42 | 46.97585 | 16.80999 | 37841 ft | 443 kts | 178° |
| 2026-04-26 07:42 | 46.94501 | 16.81411 | 38209 ft | 444 kts | 173° |
| 2026-04-26 07:43 | 46.91481 | 16.82419 | 38559 ft | 446 kts | 163° |
| 2026-04-26 07:43 | 46.88606 | 16.84164 | 38864 ft | 448 kts | 152° |
| 2026-04-26 07:43 | 46.86018 | 16.86629 | 39072 ft | 451 kts | 141° |
| 2026-04-26 07:43 | 46.83757 | 16.89824 | 39114 ft | 454 kts | 129° |
| 2026-04-26 07:44 | 46.81885 | 16.93545 | 39122 ft | 454 kts | 123° |
| 2026-04-26 07:44 | 46.78489 | 17.01355 | 39127 ft | 455 kts | 120° |
| 2026-04-26 07:45 | 46.75185 | 17.09268 | 39129 ft | 456 kts | 121° |
| 2026-04-26 07:45 | 46.71860 | 17.17082 | 39132 ft | 454 kts | 121° |
| 2026-04-26 07:46 | 46.68506 | 17.24831 | 39129 ft | 450 kts | 121° |
| 2026-04-26 07:46 | 46.65158 | 17.32507 | 39128 ft | 449 kts | 122° |
| 2026-04-26 07:47 | 46.61818 | 17.40145 | 39120 ft | 449 kts | 122° |
| 2026-04-26 07:47 | 46.58451 | 17.47830 | 39113 ft | 449 kts | 122° |
| 2026-04-26 07:48 | 46.55104 | 17.55452 | 39108 ft | 449 kts | 122° |
| 2026-04-26 07:48 | 46.51735 | 17.63104 | 39102 ft | 449 kts | 122° |
| 2026-04-26 07:49 | 46.48355 | 17.70760 | 39099 ft | 450 kts | 122° |
| 2026-04-26 07:49 | 46.44969 | 17.78407 | 39093 ft | 450 kts | 122° |